Time;durP1;ratioP1;P1;durP2;ratioP2;P2;SDS_P1;SDS_P2;PMS_P1;PMS_P2;Temp;Humidity;BMP_temperature;BMP_pressure;BME280_temperature;BME280_humidity;BME280_pressure;Samples;Min_cycle;Max_cycle;Signal;HPM_P1;HPM_P2
2023/05/13 00:01:04;;;;;;;23.25;18.88;;;;;;;13.26;94.27;101904.78;5033802;28;20091;-48
2023/05/13 00:03:30;;;;;;;24.08;18.73;;;;;;;13.22;93.78;101902.91;5033476;28;20033;-47
2023/05/13 00:05:56;;;;;;;25.27;18.02;;;;;;;13.16;94.38;101898.56;5030469;28;20029;-45
2023/05/13 00:08:21;;;;;;;23.45;18.25;;;;;;;13.16;95.06;101907.69;5033768;28;20447;-46
2023/05/13 00:10:46;;;;;;;20.92;16.95;;;;;;;13.11;92.80;101899.44;5033857;28;20047;-46
2023/05/13 00:13:12;;;;;;;23.38;17.75;;;;;;;13.08;93.70;101900.84;5033741;28;20641;-47
2023/05/13 00:15:37;;;;;;;22.95;16.88;;;;;;;13.05;94.17;101900.63;5033681;28;20168;-48
2023/05/13 00:18:03;;;;;;;22.10;17.10;;;;;;;13.02;93.55;101912.34;5033633;28;20037;-46
2023/05/13 00:20:28;;;;;;;23.10;17.17;;;;;;;12.98;94.08;101905.72;5033779;28;20040;-49
2023/05/13 00:22:53;;;;;;;23.42;17.63;;;;;;;12.92;94.40;101910.50;5033567;28;20072;-47
2023/05/13 00:25:19;;;;;;;22.70;17.73;;;;;;;12.88;95.71;101906.69;5033459;28;20057;-46
2023/05/13 00:27:44;;;;;;;22.90;17.88;;;;;;;12.86;95.42;101909.72;5032633;28;20033;-46
2023/05/13 00:30:09;;;;;;;22.13;18.30;;;;;;;12.81;96.60;101909.81;5033406;28;20044;-47
2023/05/13 00:32:35;;;;;;;22.80;17.77;;;;;;;12.81;96.72;101909.81;5033623;28;20044;-48
2023/05/13 00:35:00;;;;;;;22.40;18.02;;;;;;;12.74;96.68;101910.16;5033280;28;20491;-47
2023/05/13 00:37:26;;;;;;;24.95;18.77;;;;;;;12.73;98.00;101911.28;5033086;28;20030;-45
2023/05/13 00:39:51;;;;;;;23.00;18.33;;;;;;;12.70;97.23;101902.72;5033330;28;20076;-49
2023/05/13 00:42:16;;;;;;;22.40;18.20;;;;;;;12.68;97.37;101908.56;5033135;28;20026;-47
2023/05/13 00:44:41;;;;;;;24.23;18.35;;;;;;;12.66;97.64;101912.75;5033295;28;20529;-47
2023/05/13 00:47:09;;;;;;;24.02;18.88;;;;;;;12.62;97.24;101910.56;5033160;28;20651;-46
2023/05/13 00:49:35;;;;;;;22.83;18.30;;;;;;;12.56;97.96;101911.75;5033198;28;20057;-48
2023/05/13 00:52:01;;;;;;;23.55;18.40;;;;;;;12.51;98.33;101911.78;5033172;28;20071;-49
2023/05/13 00:54:27;;;;;;;22.92;18.58;;;;;;;12.47;98.66;101913.47;5033254;28;20035;-46
2023/05/13 00:56:55;;;;;;;24.23;18.77;;;;;;;12.45;98.62;101918.53;5040950;28;20037;-47
2023/05/13 00:59:24;;;;;;;22.35;18.10;;;;;;;12.40;98.28;101913.00;5052661;28;20032;-46
2023/05/13 01:02:15;;;;;;;22.70;18.02;;;;;;;12.37;98.90;101919.97;5047923;28;20035;-48
2023/05/13 01:05:12;;;;;;;22.40;18.42;;;;;;;12.38;98.95;101918.84;5052649;28;20106;-48
2023/05/13 01:07:55;;;;;;;23.48;19.05;;;;;;;12.33;99.44;101911.41;5017171;28;20389;-45
2023/05/13 01:10:26;;;;;;;22.77;18.55;;;;;;;12.20;99.67;101911.25;5052576;28;20025;-46
2023/05/13 01:12:57;;;;;;;23.85;18.30;;;;;;;12.21;100.00;101910.16;5052461;28;20475;-47
2023/05/13 01:15:25;;;;;;;23.75;18.45;;;;;;;12.21;99.98;101905.41;5052520;28;20029;-47
2023/05/13 01:18:12;;;;;;;23.67;18.23;;;;;;;12.20;99.38;101911.25;5052377;28;20032;-47
2023/05/13 01:20:41;;;;;;;23.02;18.40;;;;;;;12.13;98.77;101911.59;5052367;28;20115;-46
2023/05/13 01:23:07;;;;;;;23.20;18.17;;;;;;;12.12;99.03;101907.16;5052404;28;20021;-46
2023/05/13 01:25:34;;;;;;;24.80;19.45;;;;;;;12.06;99.03;101911.09;5052267;28;20533;-47
2023/05/13 01:27:59;;;;;;;23.70;18.17;;;;;;;12.04;99.59;101905.00;5052122;28;20045;-48
2023/05/13 01:30:25;;;;;;;22.92;18.33;;;;;;;11.98;98.93;101913.38;5052010;28;20116;-46
2023/05/13 01:32:52;;;;;;;23.23;18.85;;;;;;;11.92;98.86;101902.59;5050504;28;20381;-49
2023/05/13 01:35:18;;;;;;;23.67;18.75;;;;;;;11.89;99.01;101908.69;5051925;28;20049;-46
2023/05/13 01:37:44;;;;;;;23.98;18.40;;;;;;;11.86;98.05;101913.69;5051740;28;20052;-48
2023/05/13 01:40:10;;;;;;;23.13;18.67;;;;;;;11.82;98.04;101909.03;5051906;28;20385;-49
2023/05/13 01:42:35;;;;;;;23.73;18.52;;;;;;;11.83;98.08;101905.97;5051795;28;20333;-46
2023/05/13 01:45:02;;;;;;;24.70;18.38;;;;;;;11.77;97.77;101911.84;5051757;28;20033;-45
2023/05/13 01:47:27;;;;;;;23.27;18.25;;;;;;;11.71;98.06;101917.41;5051714;28;20112;-49
2023/05/13 01:49:52;;;;;;;23.48;18.23;;;;;;;11.66;98.67;101909.13;5051689;28;20528;-48
2023/05/13 01:52:18;;;;;;;22.73;17.67;;;;;;;11.64;98.59;101913.31;5051577;28;20029;-48
2023/05/13 01:54:43;;;;;;;21.90;18.02;;;;;;;11.58;98.39;101920.00;5051750;28;20454;-46
2023/05/13 01:57:08;;;;;;;23.65;17.08;;;;;;;11.54;98.95;101911.44;5051554;28;20120;-47
2023/05/13 01:59:34;;;;;;;22.52;17.55;;;;;;;11.49;98.84;101912.28;5051498;28;20032;-45
2023/05/13 02:01:59;;;;;;;23.52;17.85;;;;;;;11.46;97.25;101909.25;5044016;28;20021;-48
2023/05/13 02:04:25;;;;;;;22.25;18.05;;;;;;;11.42;97.51;101911.78;5051411;28;20537;-45
2023/05/13 02:06:50;;;;;;;23.77;17.75;;;;;;;11.43;97.80;101907.91;5050936;28;20025;-45
2023/05/13 02:09:15;;;;;;;22.75;17.90;;;;;;;11.39;97.18;101913.19;5051458;28;20107;-45
2023/05/13 02:11:40;;;;;;;24.30;17.80;;;;;;;11.41;97.03;101921.19;5051209;28;20112;-46
2023/05/13 02:14:06;;;;;;;21.98;17.95;;;;;;;11.37;96.72;101920.13;5049885;28;20025;-46
2023/05/13 02:16:31;;;;;;;22.83;18.13;;;;;;;11.33;95.62;101911.56;5051299;28;20060;-45
2023/05/13 02:18:56;;;;;;;21.75;17.88;;;;;;;11.28;95.01;101914.34;5051061;28;20033;-47
2023/05/13 02:21:22;;;;;;;23.10;17.95;;;;;;;11.26;96.39;101918.53;5051183;28;20491;-48
2023/05/13 02:23:47;;;;;;;21.85;17.42;;;;;;;11.19;95.76;101919.63;5051111;28;20128;-45
2023/05/13 02:26:13;;;;;;;22.98;17.83;;;;;;;11.15;96.02;101914.94;5049713;28;20111;-45
2023/05/13 02:28:38;;;;;;;22.55;17.30;;;;;;;11.15;96.08;101912.19;5051034;28;20029;-45
2023/05/13 02:31:03;;;;;;;22.77;17.77;;;;;;;11.13;96.05;101908.91;5050984;28;20037;-46
2023/05/13 02:33:29;;;;;;;22.08;17.88;;;;;;;11.07;95.80;101908.09;5050868;28;20029;-46
2023/05/13 02:35:54;;;;;;;23.48;17.92;;;;;;;11.07;96.64;101911.66;5051445;28;20056;-49
2023/05/13 02:38:19;;;;;;;24.20;18.38;;;;;;;11.07;96.29;101917.22;5050844;28;20041;-46
2023/05/13 02:40:45;;;;;;;22.35;17.80;;;;;;;11.07;96.30;101916.38;5050994;28;20033;-48
2023/05/13 02:43:10;;;;;;;23.60;18.17;;;;;;;11.10;95.90;101910.25;5050899;28;20457;-47
2023/05/13 02:45:35;;;;;;;21.85;17.58;;;;;;;11.12;95.71;101907.22;5050915;28;20397;-51
2023/05/13 02:48:00;;;;;;;22.70;17.63;;;;;;;11.07;95.49;101905.31;5050732;28;20041;-47
2023/05/13 02:50:26;;;;;;;22.85;17.50;;;;;;;11.09;95.55;101908.63;5054205;28;20029;-49
2023/05/13 02:52:51;;;;;;;22.77;17.33;;;;;;;11.04;95.54;101906.72;5057732;28;20116;-51
2023/05/13 02:55:16;;;;;;;22.65;17.63;;;;;;;11.00;95.81;101911.16;5057726;28;20115;-51
2023/05/13 02:57:42;;;;;;;21.50;17.08;;;;;;;10.98;95.72;101910.59;5057635;28;20039;-47
2023/05/13 03:00:08;;;;;;;22.25;18.17;;;;;;;10.90;97.02;101906.50;5057535;28;20111;-48
2023/05/13 03:02:33;;;;;;;23.13;17.45;;;;;;;10.82;95.14;101912.59;5057231;28;20032;-50
2023/05/13 03:04:59;;;;;;;23.17;18.27;;;;;;;10.79;97.23;101910.41;5057338;28;20550;-48
2023/05/13 03:07:24;;;;;;;22.73;18.15;;;;;;;10.72;95.70;101913.47;5050064;28;20025;-50
2023/05/13 03:09:49;;;;;;;22.25;18.27;;;;;;;10.67;96.60;101907.09;5057359;28;20499;-48
2023/05/13 03:12:15;;;;;;;21.65;17.60;;;;;;;10.69;97.77;101907.66;5056697;28;20025;-49
2023/05/13 03:14:41;;;;;;;23.10;17.90;;;;;;;10.60;97.39;101899.94;5057304;28;20040;-48
2023/05/13 03:17:07;;;;;;;22.85;18.30;;;;;;;10.64;97.91;101902.13;5057253;28;20092;-48
2023/05/13 03:19:34;;;;;;;22.10;18.10;;;;;;;10.64;97.38;101897.44;5057335;28;20028;-51
2023/05/13 03:22:00;;;;;;;22.63;18.10;;;;;;;10.64;97.24;101908.50;5057411;28;20060;-51
2023/05/13 03:24:25;;;;;;;23.42;18.50;;;;;;;10.66;97.53;101913.75;5056889;28;20053;-49
2023/05/13 03:26:50;;;;;;;23.52;18.30;;;;;;;10.61;97.21;101909.91;5056548;28;20040;-48
2023/05/13 03:29:15;;;;;;;23.13;18.48;;;;;;;10.60;97.55;101902.69;5056790;28;20409;-48
2023/05/13 03:31:41;;;;;;;23.02;18.80;;;;;;;10.62;97.43;101905.19;5056863;28;20033;-47
2023/05/13 03:34:06;;;;;;;23.83;18.15;;;;;;;10.56;97.44;101909.91;5057224;28;20430;-46
2023/05/13 03:36:31;;;;;;;24.08;18.58;;;;;;;10.53;98.31;101912.41;5057041;28;20037;-46
2023/05/13 03:38:57;;;;;;;23.85;18.40;;;;;;;10.46;98.13;101920.97;5057183;28;20075;-51
2023/05/13 03:41:23;;;;;;;23.98;18.85;;;;;;;10.41;98.57;101907.97;5056946;28;20159;-46
2023/05/13 03:43:48;;;;;;;22.63;18.90;;;;;;;10.37;98.86;101917.97;5057011;28;20112;-47
2023/05/13 03:46:14;;;;;;;23.65;19.15;;;;;;;10.33;99.60;101922.34;5056697;28;20039;-47
2023/05/13 03:48:39;;;;;;;26.20;19.70;;;;;;;10.32;99.31;101920.69;5056628;28;20024;-47
2023/05/13 03:51:05;;;;;;;24.08;19.40;;;;;;;10.27;99.63;101917.94;5056794;28;20091;-47
2023/05/13 03:53:30;;;;;;;24.05;19.60;;;;;;;10.23;100.00;101925.97;5056706;28;20028;-49
2023/05/13 03:55:55;;;;;;;27.20;19.17;;;;;;;10.23;100.00;101917.66;5057030;28;20087;-48
2023/05/13 03:58:21;;;;;;;23.58;19.30;;;;;;;10.21;100.00;101925.41;5056861;28;20032;-46
2023/05/13 04:00:46;;;;;;;24.02;19.02;;;;;;;10.18;100.00;101917.66;5056546;28;20399;-49
2023/05/13 04:03:14;;;;;;;22.83;18.67;;;;;;;10.25;100.00;101914.63;5052515;28;20040;-45
2023/05/13 04:05:40;;;;;;;24.10;18.67;;;;;;;10.21;100.00;101919.88;5052830;28;20155;-47
2023/05/13 04:08:05;;;;;;;22.95;18.77;;;;;;;10.24;100.00;101922.09;5045942;28;20477;-48
2023/05/13 04:10:31;;;;;;;23.15;18.45;;;;;;;10.22;100.00;101915.16;5052843;28;20143;-47
2023/05/13 04:12:56;;;;;;;23.25;18.30;;;;;;;10.20;100.00;101918.22;5053426;28;20031;-46
2023/05/13 04:15:21;;;;;;;24.92;17.77;;;;;;;10.20;100.00;101912.69;5053290;28;20094;-47
2023/05/13 04:17:47;;;;;;;26.17;18.63;;;;;;;10.18;100.00;101914.88;5053658;28;20025;-47
2023/05/13 04:20:12;;;;;;;24.60;18.10;;;;;;;10.23;100.00;101916.81;5052506;28;20032;-49
2023/05/13 04:22:37;;;;;;;25.25;18.52;;;;;;;10.20;100.00;101929.28;5053575;28;20043;-45
2023/05/13 04:25:03;;;;;;;23.75;18.52;;;;;;;10.20;100.00;101929.28;5053045;28;20102;-46
2023/05/13 04:27:28;;;;;;;26.88;18.15;;;;;;;10.21;100.00;101922.63;5053201;28;20060;-46
2023/05/13 04:29:54;;;;;;;25.15;17.42;;;;;;;10.26;100.00;101932.88;5053612;28;20468;-46
2023/05/13 04:32:22;;;;;;;24.55;17.92;;;;;;;10.26;100.00;101933.69;5053054;28;20526;-47
2023/05/13 04:34:47;;;;;;;24.70;18.70;;;;;;;10.24;100.00;101941.47;5039248;28;20036;-49
2023/05/13 04:37:13;;;;;;;25.02;17.88;;;;;;;10.28;100.00;101939.78;5033292;28;20033;-47
2023/05/13 04:39:38;;;;;;;24.02;17.83;;;;;;;10.29;100.00;101937.84;5032905;28;20045;-48
2023/05/13 04:42:04;;;;;;;23.58;18.05;;;;;;;10.35;100.00;101941.41;5032957;28;20034;-51
2023/05/13 04:44:31;;;;;;;24.48;18.20;;;;;;;10.36;100.00;101938.41;5032940;28;20120;-46
2023/05/13 04:46:56;;;;;;;24.35;18.23;;;;;;;10.38;100.00;101946.44;5033223;28;20112;-46
2023/05/13 04:49:21;;;;;;;24.45;18.27;;;;;;;10.40;99.79;101939.50;5033121;28;20108;-47
2023/05/13 04:51:47;;;;;;;24.88;18.40;;;;;;;10.43;99.74;101938.16;5033147;28;20061;-48
2023/05/13 04:54:12;;;;;;;23.38;18.48;;;;;;;10.46;99.57;101940.34;5032901;28;20025;-50
2023/05/13 04:56:37;;;;;;;24.10;19.50;;;;;;;10.44;99.83;101935.09;5032987;28;20033;-50
2023/05/13 04:59:02;;;;;;;24.55;18.98;;;;;;;10.47;100.00;101944.78;5032871;28;20109;-49
2023/05/13 05:01:28;;;;;;;24.85;18.55;;;;;;;10.48;99.97;101948.38;5032655;28;20091;-48
2023/05/13 05:03:53;;;;;;;27.02;18.83;;;;;;;10.49;100.00;101945.31;5030974;28;20036;-50
2023/05/13 05:06:18;;;;;;;23.48;18.40;;;;;;;10.54;100.00;101942.53;5032537;28;20103;-47
2023/05/13 05:08:43;;;;;;;25.63;19.10;;;;;;;10.55;99.85;101951.69;5032625;28;20043;-47
2023/05/13 05:11:09;;;;;;;24.65;18.73;;;;;;;10.58;100.00;101948.38;5028537;28;20069;-49
2023/05/13 05:13:35;;;;;;;25.10;18.27;;;;;;;10.62;99.70;101949.44;5032379;28;20056;-50
2023/05/13 05:16:00;;;;;;;24.55;18.75;;;;;;;10.68;99.65;101948.31;5032402;28;20109;-49
2023/05/13 05:18:25;;;;;;;23.73;18.98;;;;;;;10.73;100.00;101953.03;5032537;28;20026;-46
2023/05/13 05:20:51;;;;;;;28.17;19.30;;;;;;;10.75;99.11;101962.72;5031126;28;20026;-47
2023/05/13 05:23:16;;;;;;;25.48;20.55;;;;;;;10.79;98.69;101959.38;5031097;28;20593;-47
2023/05/13 05:25:41;;;;;;;26.42;19.80;;;;;;;10.84;98.90;101962.97;5032170;28;20040;-50
2023/05/13 05:28:08;;;;;;;26.13;19.30;;;;;;;10.87;98.40;101962.41;5032437;28;20485;-47
2023/05/13 05:30:38;;;;;;;25.98;19.58;;;;;;;10.93;99.07;101966.00;5032209;28;20033;-47
2023/05/13 05:33:05;;;;;;;24.38;18.70;;;;;;;10.99;99.90;101977.91;5032393;28;20033;-46
2023/05/13 05:35:30;;;;;;;25.70;20.45;;;;;;;10.98;99.15;101971.50;5031773;28;20032;-46
2023/05/13 05:37:55;;;;;;;24.42;19.23;;;;;;;11.02;98.62;101975.38;5031895;28;20057;-46
2023/05/13 05:40:21;;;;;;;25.75;19.52;;;;;;;11.05;98.73;101960.16;5032032;28;20033;-47
2023/05/13 05:42:46;;;;;;;24.33;19.83;;;;;;;11.10;98.94;101970.38;5032045;28;20037;-50
2023/05/13 05:45:11;;;;;;;23.98;20.05;;;;;;;11.14;98.81;101965.94;5031789;28;20036;-46
2023/05/13 05:47:37;;;;;;;25.90;20.80;;;;;;;11.17;98.17;101974.50;5033225;28;20040;-46
2023/05/13 05:50:02;;;;;;;26.42;21.00;;;;;;;11.25;98.22;101970.31;5041236;28;20037;-47
2023/05/13 05:52:27;;;;;;;25.50;20.08;;;;;;;11.31;97.98;101976.66;5042437;28;20075;-48
2023/05/13 05:54:53;;;;;;;27.05;20.92;;;;;;;11.38;97.86;101989.09;5042205;28;20047;-47
2023/05/13 05:57:18;;;;;;;25.83;20.67;;;;;;;11.43;97.46;101985.47;5040712;28;20544;-46
2023/05/13 05:59:43;;;;;;;26.48;20.63;;;;;;;11.45;98.34;101982.41;5042769;28;20029;-46
2023/05/13 06:02:09;;;;;;;26.77;22.08;;;;;;;11.48;97.10;101985.44;5034627;28;20098;-48
2023/05/13 06:04:34;;;;;;;25.77;21.25;;;;;;;11.51;97.71;101984.88;5031468;28;20029;-47
2023/05/13 06:06:59;;;;;;;26.38;20.52;;;;;;;11.58;98.26;101986.50;5024271;28;20029;-47
2023/05/13 06:09:24;;;;;;;28.30;20.23;;;;;;;11.60;97.76;101982.34;5031196;28;20436;-47
2023/05/13 06:11:50;;;;;;;26.17;19.88;;;;;;;11.59;97.71;101977.09;5031374;28;20113;-45
2023/05/13 06:14:16;;;;;;;26.83;21.85;;;;;;;11.66;97.09;101983.97;5031271;28;20091;-47
2023/05/13 06:16:41;;;;;;;25.92;20.20;;;;;;;11.73;97.72;101977.28;5031291;28;20037;-47
2023/05/13 06:19:06;;;;;;;27.20;20.95;;;;;;;11.75;97.11;101988.91;5031143;28;20032;-46
2023/05/13 06:21:33;;;;;;;26.30;20.58;;;;;;;11.71;96.39;101983.94;5029728;28;20033;-47
2023/05/13 06:23:59;;;;;;;26.63;21.38;;;;;;;11.73;97.43;101988.38;5030804;28;20029;-47
2023/05/13 06:26:25;;;;;;;26.15;20.98;;;;;;;11.69;96.69;101991.72;5030550;28;20029;-47
2023/05/13 06:28:50;;;;;;;27.02;21.08;;;;;;;11.70;97.60;101987.84;5031087;28;20191;-47
2023/05/13 06:31:16;;;;;;;25.40;21.00;;;;;;;11.73;97.97;101985.59;5038884;28;20087;-47
2023/05/13 06:33:41;;;;;;;28.42;21.80;;;;;;;11.81;97.93;101994.16;5039485;28;20405;-50
2023/05/13 06:36:08;;;;;;;27.42;21.70;;;;;;;11.92;97.70;101999.63;5049622;28;20028;-50
2023/05/13 06:38:34;;;;;;;26.00;20.67;;;;;;;12.07;96.80;101996.78;5046746;28;20045;-49
2023/05/13 06:40:59;;;;;;;26.95;21.52;;;;;;;12.22;96.07;101987.53;5050723;28;20540;-47
2023/05/13 06:43:25;;;;;;;27.48;22.23;;;;;;;12.37;95.11;101996.84;5050394;28;20020;-48
2023/05/13 06:45:50;;;;;;;26.75;21.67;;;;;;;12.48;95.26;101996.47;5050679;28;20469;-45
2023/05/13 06:48:15;;;;;;;27.98;22.60;;;;;;;12.60;95.58;101998.03;5050898;28;20464;-47
2023/05/13 06:50:41;;;;;;;28.30;22.55;;;;;;;12.72;94.65;102000.41;5051075;28;20032;-47
2023/05/13 06:53:07;;;;;;;27.15;22.23;;;;;;;12.85;94.80;102010.00;5050624;28;20072;-44
2023/05/13 06:55:40;;;;;;;27.33;22.30;;;;;;;12.99;94.63;102010.16;5050739;28;20391;-47
2023/05/13 06:58:05;;;;;;;27.92;22.42;;;;;;;13.08;93.30;102003.63;5051030;28;20033;-44
2023/05/13 07:00:31;;;;;;;25.10;20.83;;;;;;;13.23;91.68;102010.16;5049372;28;20111;-47
2023/05/13 07:02:56;;;;;;;24.80;21.70;;;;;;;13.37;92.36;102005.53;5050627;28;20494;-45
2023/05/13 07:05:21;;;;;;;27.00;21.48;;;;;;;13.40;88.34;102009.72;5050535;28;20520;-45
2023/05/13 07:07:47;;;;;;;25.35;20.52;;;;;;;13.56;90.58;101997.25;5050319;28;20033;-48
2023/05/13 07:10:12;;;;;;;25.75;20.10;;;;;;;13.72;88.36;102011.78;5048354;28;20028;-48
2023/05/13 07:12:37;;;;;;;25.35;20.40;;;;;;;13.79;88.31;102003.06;5045017;28;20039;-46
2023/05/13 07:15:04;;;;;;;26.00;21.67;;;;;;;13.79;86.60;102003.06;5050605;28;20029;-47
2023/05/13 07:17:30;;;;;;;25.58;21.65;;;;;;;13.88;86.17;101998.50;5049936;28;20040;-50
2023/05/13 07:19:55;;;;;;;26.77;21.60;;;;;;;14.01;87.50;102008.03;5044709;28;20121;-48
2023/05/13 07:22:20;;;;;;;26.23;21.25;;;;;;;14.12;85.99;101999.56;5048690;28;20116;-46
2023/05/13 07:24:46;;;;;;;27.42;21.63;;;;;;;14.19;85.88;101997.19;5048443;28;20083;-49
2023/05/13 07:27:11;;;;;;;26.75;21.15;;;;;;;14.22;84.33;102002.13;5041090;28;20029;-46
2023/05/13 07:29:36;;;;;;;26.60;21.27;;;;;;;14.36;84.64;102007.75;5028675;28;20344;-46
2023/05/13 07:32:04;;;;;;;26.50;19.98;;;;;;;14.43;84.85;102004.59;5028724;28;20045;-46
2023/05/13 07:34:29;;;;;;;24.98;20.20;;;;;;;14.41;83.30;102006.84;5046431;28;20044;-49
2023/05/13 07:36:54;;;;;;;25.48;20.27;;;;;;;14.33;84.06;102000.84;5049036;28;20033;-47
2023/05/13 07:39:19;;;;;;;26.42;20.10;;;;;;;14.40;84.60;102003.25;5052787;28;20155;-46
2023/05/13 07:41:45;;;;;;;25.58;19.27;;;;;;;14.34;83.35;102002.50;5052274;28;20033;-49
2023/05/13 07:44:12;;;;;;;26.95;19.65;;;;;;;14.26;83.63;102007.94;5050766;28;20037;-43
2023/05/13 07:46:37;;;;;;;24.33;19.27;;;;;;;14.17;83.57;102005.84;5052477;28;20033;-49
2023/05/13 07:49:05;;;;;;;24.98;18.88;;;;;;;14.14;84.99;102002.84;5052313;28;20452;-45
2023/05/13 07:51:30;;;;;;;26.42;20.48;;;;;;;14.09;85.22;102008.50;5050850;28;20021;-44
2023/05/13 07:53:56;;;;;;;25.75;21.60;;;;;;;14.15;86.10;102008.13;5051980;28;20044;-49
2023/05/13 07:56:21;;;;;;;24.90;19.60;;;;;;;14.27;85.28;102010.44;5052012;28;20502;-50
2023/05/13 07:58:46;;;;;;;26.67;20.00;;;;;;;14.31;85.68;102008.66;5052287;28;20575;-49
2023/05/13 08:01:12;;;;;;;26.13;20.23;;;;;;;14.41;84.99;102004.91;5051840;28;20041;-50
2023/05/13 08:03:37;;;;;;;26.35;20.45;;;;;;;14.52;84.06;102011.13;5051658;28;20035;-48
2023/05/13 08:06:02;;;;;;;24.58;19.95;;;;;;;14.65;85.21;102002.00;5051751;28;20104;-47
2023/05/13 08:08:27;;;;;;;24.80;20.38;;;;;;;14.81;85.46;102004.53;5051924;28;20029;-49
2023/05/13 08:10:53;;;;;;;24.33;20.38;;;;;;;15.00;85.22;102010.03;5051963;28;20439;-46
2023/05/13 08:13:18;;;;;;;26.45;19.90;;;;;;;15.11;83.04;102003.09;5050665;28;20029;-48
2023/05/13 08:15:43;;;;;;;24.92;19.58;;;;;;;15.26;83.62;102015.09;5051911;28;20033;-50
2023/05/13 08:18:09;;;;;;;24.75;20.23;;;;;;;15.38;83.41;102011.78;5050416;28;20344;-49
2023/05/13 08:20:34;;;;;;;26.83;19.88;;;;;;;15.43;82.47;102014.47;5050019;28;20388;-48
2023/05/13 08:23:00;;;;;;;24.77;19.67;;;;;;;15.55;81.40;102009.19;5049889;28;20090;-46
2023/05/13 08:25:26;;;;;;;25.13;19.27;;;;;;;15.66;80.67;102018.16;5048255;28;20167;-47
2023/05/13 08:27:51;;;;;;;23.80;19.02;;;;;;;15.83;82.58;102013.91;5049682;28;20139;-46
2023/05/13 08:30:16;;;;;;;23.10;19.20;;;;;;;15.87;80.72;102015.78;5049984;28;20029;-49
2023/05/13 08:32:42;;;;;;;24.65;18.80;;;;;;;15.90;78.36;102019.91;5050604;28;20412;-47
2023/05/13 08:35:07;;;;;;;25.15;19.08;;;;;;;15.92;79.09;102014.03;5051508;28;20413;-46
2023/05/13 08:37:33;;;;;;;23.45;18.55;;;;;;;15.93;78.50;102013.69;5048200;28;20045;-46
2023/05/13 08:40:00;;;;;;;22.85;18.80;;;;;;;15.96;78.61;102012.22;5051348;28;20045;-47
2023/05/13 08:42:27;;;;;;;24.58;19.25;;;;;;;16.03;79.90;102007.88;5051908;28;20111;-46
2023/05/13 08:44:53;;;;;;;25.02;19.02;;;;;;;16.16;79.65;102005.34;5051363;28;20032;-46
2023/05/13 08:47:35;;;;;;;23.13;18.17;;;;;;;16.31;79.67;102013.34;5050917;28;20033;-47
2023/05/13 08:50:01;;;;;;;25.45;19.20;;;;;;;16.47;77.88;102011.00;5051385;28;20097;-46
2023/05/13 08:52:27;;;;;;;22.90;18.00;;;;;;;16.58;77.77;102007.97;5051062;28;20025;-47
2023/05/13 08:54:53;;;;;;;23.48;19.15;;;;;;;16.62;76.06;102009.78;5051112;28;20043;-46
2023/05/13 08:57:18;;;;;;;23.02;18.70;;;;;;;16.69;76.06;102007.38;5050847;28;20142;-48
2023/05/13 08:59:44;;;;;;;24.25;18.08;;;;;;;16.86;77.35;101993.81;5051133;28;20466;-48
2023/05/13 09:02:09;;;;;;;25.65;18.63;;;;;;;17.02;74.42;102008.19;5051150;28;20497;-46
2023/05/13 09:04:37;;;;;;;24.45;18.05;;;;;;;17.14;73.37;101998.06;5051107;28;20468;-47
2023/05/13 09:07:06;;;;;;;24.00;18.20;;;;;;;17.28;74.41;102006.34;5051275;28;20036;-47
2023/05/13 09:09:32;;;;;;;22.95;17.60;;;;;;;17.36;73.30;101999.13;5050755;28;20460;-46
2023/05/13 09:11:57;;;;;;;23.58;17.00;;;;;;;17.45;69.03;101999.16;5051355;28;20029;-47
2023/05/13 09:14:31;;;;;;;22.45;17.13;;;;;;;17.53;70.95;101991.91;5050971;28;20503;-46
2023/05/13 09:16:56;;;;;;;24.95;18.35;;;;;;;17.62;70.16;101996.38;5050747;28;20037;-47
2023/05/13 09:19:23;;;;;;;24.55;19.23;;;;;;;17.74;71.42;101995.75;5049804;28;20116;-46
2023/05/13 09:21:49;;;;;;;23.10;18.00;;;;;;;17.84;70.88;101993.78;5049383;28;20029;-46
2023/05/13 09:24:17;;;;;;;22.77;17.55;;;;;;;17.94;70.57;102001.84;5049660;28;20036;-48
2023/05/13 09:26:44;;;;;;;23.08;17.38;;;;;;;18.01;70.28;101995.78;5049193;28;20063;-47
2023/05/13 09:29:16;;;;;;;23.67;17.15;;;;;;;18.09;69.91;102006.16;5050616;28;20029;-46
2023/05/13 09:31:42;;;;;;;23.20;17.13;;;;;;;18.15;70.65;101982.44;5050471;28;20066;-48
2023/05/13 09:34:08;;;;;;;21.90;16.45;;;;;;;18.21;67.13;101988.69;5050802;28;20064;-47
2023/05/13 09:36:33;;;;;;;22.17;16.25;;;;;;;18.33;68.13;101988.84;5048634;28;20060;-46
2023/05/13 09:38:58;;;;;;;23.45;17.45;;;;;;;18.42;67.05;101983.22;5050360;28;20053;-47
2023/05/13 09:41:26;;;;;;;22.17;16.67;;;;;;;18.45;67.42;101981.75;5049525;28;20108;-48
2023/05/13 09:43:51;;;;;;;21.90;16.42;;;;;;;18.52;65.95;101987.66;5050247;28;20036;-46
2023/05/13 09:46:17;;;;;;;22.77;16.60;;;;;;;18.51;66.22;101981.25;5051049;28;20029;-46
2023/05/13 09:48:42;;;;;;;22.50;15.55;;;;;;;18.62;65.98;101980.88;5051158;28;20099;-47
2023/05/13 09:51:08;;;;;;;23.20;15.25;;;;;;;18.83;66.84;101981.81;5047806;28;20124;-45
2023/05/13 09:53:33;;;;;;;21.92;15.98;;;;;;;18.98;66.82;101980.47;5049952;28;20029;-45
2023/05/13 09:56:00;;;;;;;22.27;15.70;;;;;;;19.11;67.34;101975.78;5047924;28;20041;-45
2023/05/13 09:58:27;;;;;;;24.10;16.17;;;;;;;19.19;66.04;101976.91;5049948;28;20108;-45
2023/05/13 10:00:53;;;;;;;22.15;14.63;;;;;;;19.16;60.95;101983.19;5048643;28;20044;-45
2023/05/13 10:03:19;;;;;;;22.58;13.80;;;;;;;19.29;61.82;101978.47;5048433;28;20032;-44
2023/05/13 10:05:44;;;;;;;20.70;14.50;;;;;;;19.35;60.22;101979.13;5049027;28;20094;-47
2023/05/13 10:08:12;;;;;;;21.35;14.73;;;;;;;19.43;61.40;101967.84;5044093;28;20048;-45
2023/05/13 10:10:39;;;;;;;22.27;13.93;;;;;;;19.54;61.32;101964.66;5050784;28;20029;-46
2023/05/13 10:13:09;;;;;;;20.73;14.45;;;;;;;19.67;61.34;101957.13;5049746;28;20032;-46
2023/05/13 10:15:35;;;;;;;22.70;14.40;;;;;;;19.80;60.54;101961.63;5047066;28;20145;-45
2023/05/13 10:18:01;;;;;;;22.08;14.32;;;;;;;19.94;61.49;101958.56;5049073;28;20140;-47
2023/05/13 10:20:26;;;;;;;20.25;13.27;;;;;;;20.01;59.84;101966.44;5042517;28;20365;-48
2023/05/13 10:22:53;;;;;;;21.63;13.35;;;;;;;19.98;55.49;101965.16;5029414;28;20042;-45
2023/05/13 10:25:19;;;;;;;20.77;13.10;;;;;;;20.03;57.82;101961.31;5027832;28;20040;-47
2023/05/13 10:27:45;;;;;;;19.58;12.38;;;;;;;20.08;52.00;101964.75;5028928;28;20033;-48
2023/05/13 10:30:11;;;;;;;20.15;12.48;;;;;;;20.22;53.44;101956.00;5029669;28;20029;-46
2023/05/13 10:32:40;;;;;;;21.45;12.40;;;;;;;20.27;53.21;101938.91;5029656;28;20102;-48
2023/05/13 10:35:17;;;;;;;19.67;12.43;;;;;;;20.33;53.03;101947.97;5030181;28;20120;-47
2023/05/13 10:38:07;;;;;;;21.45;13.43;;;;;;;20.33;53.56;101949.97;5029433;28;20567;-46
2023/05/13 10:41:10;;;;;;;17.95;11.63;;;;;;;20.41;52.30;101949.03;5030240;28;20057;-50
2023/05/13 10:43:36;;;;;;;21.02;12.60;;;;;;;20.46;50.75;101948.81;5030159;28;20059;-47
2023/05/13 10:46:05;;;;;;;19.23;11.93;;;;;;;20.52;50.18;101949.41;5029858;28;20045;-45
2023/05/13 10:48:41;;;;;;;18.70;12.63;;;;;;;20.60;51.21;101948.50;5030131;28;20025;-48
2023/05/13 10:51:08;;;;;;;18.92;12.32;;;;;;;20.64;48.13;101952.25;5029815;28;20017;-46
2023/05/13 10:53:43;;;;;;;18.85;12.00;;;;;;;20.78;49.63;101949.16;5028680;28;20802;-49
2023/05/13 10:56:08;;;;;;;18.92;12.10;;;;;;;20.83;46.52;101954.53;5030237;28;20032;-47
2023/05/13 10:58:38;;;;;;;18.98;12.00;;;;;;;20.94;48.19;101940.84;5030223;28;20030;-47
2023/05/13 11:01:17;;;;;;;18.88;11.93;;;;;;;21.06;47.66;101928.75;5030154;28;20029;-45
2023/05/13 11:03:51;;;;;;;18.45;12.35;;;;;;;21.15;47.96;101943.53;5029755;28;20034;-47
2023/05/13 11:06:22;;;;;;;19.92;11.60;;;;;;;21.11;45.96;101933.31;5028715;28;20113;-45